createdAt,value
2018-11-28T00:01:41.790Z,101202.70
2018-11-28T00:04:09.499Z,101211.32
2018-11-28T00:06:37.223Z,101206.56
2018-11-28T00:09:08.220Z,101211.14
2018-11-28T00:11:36.143Z,101203.21
2018-11-28T00:14:03.928Z,101195.42
2018-11-28T00:16:31.630Z,101190.70
2018-11-28T00:18:59.318Z,101201.02
2018-11-28T00:21:26.963Z,101192.86
2018-11-28T00:23:54.700Z,101195.56
2018-11-28T00:26:22.422Z,101188.47
2018-11-28T00:28:50.159Z,101182.22
2018-11-28T00:31:17.864Z,101180.41
2018-11-28T00:33:45.625Z,101175.83
2018-11-28T00:36:13.415Z,101177.00
2018-11-28T00:38:41.113Z,101186.84
2018-11-28T00:41:08.783Z,101196.11
2018-11-28T00:43:36.483Z,101203.72
2018-11-28T00:46:05.570Z,101202.84
2018-11-28T00:48:33.303Z,101193.17
2018-11-28T00:51:01.003Z,101188.66
2018-11-28T00:53:28.719Z,101199.15
2018-11-28T00:55:56.491Z,101198.08
2018-11-28T00:58:24.183Z,101205.17
2018-11-28T01:00:51.837Z,101197.42
2018-11-28T01:03:19.624Z,101197.75
2018-11-28T01:05:47.396Z,101191.36
2018-11-28T01:08:15.214Z,101197.98
2018-11-28T01:10:42.896Z,101196.08
2018-11-28T01:13:10.587Z,101197.76
2018-11-28T01:15:38.383Z,101195.23
2018-11-28T01:18:06.615Z,101190.89
2018-11-28T01:20:34.304Z,101202.87
2018-11-28T01:23:02.014Z,101199.63
2018-11-28T01:25:29.717Z,101193.88
2018-11-28T01:27:57.421Z,101193.41
2018-11-28T01:30:25.207Z,101190.61
2018-11-28T01:32:52.873Z,101192.25
2018-11-28T01:35:21.221Z,101186.18
2018-11-28T01:37:48.967Z,101188.70
2018-11-28T01:40:18.243Z,101179.46
2018-11-28T01:42:46.007Z,101181.00
2018-11-28T01:45:16.390Z,101174.56
2018-11-28T01:47:44.203Z,101183.38
2018-11-28T01:50:13.507Z,101179.86
2018-11-28T01:52:41.303Z,101182.53
2018-11-28T01:55:12.985Z,101180.34
2018-11-28T01:57:40.725Z,101188.20
2018-11-28T02:00:21.831Z,101181.28
2018-11-28T02:02:57.479Z,101187.22
2018-11-28T02:05:25.307Z,101185.36
2018-11-28T02:07:52.987Z,101187.39
2018-11-28T02:10:23.588Z,101190.09
2018-11-28T02:12:51.279Z,101187.05
2018-11-28T02:15:20.399Z,101195.32
2018-11-28T02:17:48.207Z,101186.19
2018-11-28T02:20:16.988Z,101190.07
2018-11-28T02:22:45.334Z,101190.02
2018-11-28T02:25:16.040Z,101180.41
2018-11-28T02:27:44.277Z,101180.59
2018-11-28T02:30:18.382Z,101179.73
2018-11-28T02:32:47.247Z,101176.67
2018-11-28T02:35:15.950Z,101183.70
2018-11-28T02:37:43.691Z,101183.52
2018-11-28T02:40:12.875Z,101178.29
2018-11-28T02:42:40.791Z,101182.36
2018-11-28T02:45:13.291Z,101189.29
2018-11-28T02:47:41.056Z,101194.13
2018-11-28T02:50:08.852Z,101186.90
2018-11-28T02:52:36.559Z,101186.39
2018-11-28T02:55:06.015Z,101182.52
2018-11-28T02:57:33.720Z,101185.01
2018-11-28T03:00:01.396Z,101187.16
2018-11-28T03:02:29.140Z,101189.81
2018-11-28T03:04:56.919Z,101188.72
2018-11-28T03:07:24.655Z,101184.84
2018-11-28T03:09:52.388Z,101191.08
2018-11-28T03:12:20.103Z,101193.05
2018-11-28T03:14:47.876Z,101204.37
2018-11-28T03:17:21.353Z,101204.79
2018-11-28T03:19:49.072Z,101201.05
2018-11-28T03:22:16.755Z,101196.07
2018-11-28T03:24:44.424Z,101196.91
2018-11-28T03:27:12.093Z,101195.69
2018-11-28T03:29:39.718Z,101195.81
2018-11-28T03:32:07.464Z,101205.66
2018-11-28T03:34:35.203Z,101199.69
2018-11-28T03:37:02.936Z,101207.77
2018-11-28T03:39:30.672Z,101195.19
2018-11-28T03:41:58.408Z,101205.17
2018-11-28T03:44:26.099Z,101205.73
2018-11-28T03:46:53.815Z,101201.94
2018-11-28T03:49:21.564Z,101200.70
2018-11-28T03:51:49.276Z,101190.66
2018-11-28T03:54:17.047Z,101200.02
2018-11-28T03:56:44.768Z,101194.24
2018-11-28T03:59:12.426Z,101196.49
2018-11-28T04:01:40.165Z,101197.84
2018-11-28T04:04:07.896Z,101199.45
2018-11-28T04:06:35.543Z,101203.05
2018-11-28T04:09:06.475Z,101200.52
2018-11-28T04:11:34.175Z,101198.67
2018-11-28T04:14:02.783Z,101197.86
2018-11-28T04:16:30.446Z,101201.72
2018-11-28T04:18:58.103Z,101203.19
2018-11-28T04:21:25.811Z,101211.08
2018-11-28T04:23:53.452Z,101218.96
2018-11-28T04:26:21.207Z,101218.33
2018-11-28T04:28:50.265Z,101220.52
2018-11-28T04:31:18.543Z,101220.45
2018-11-28T04:33:46.211Z,101223.55
2018-11-28T04:36:14.011Z,101221.80
2018-11-28T04:38:41.705Z,101217.77
2018-11-28T04:41:09.444Z,101219.71
2018-11-28T04:43:37.111Z,101220.52
2018-11-28T04:46:05.339Z,101219.97
2018-11-28T04:48:33.035Z,101220.22
2018-11-28T04:51:00.755Z,101219.25
2018-11-28T04:53:28.417Z,101211.66
2018-11-28T04:55:56.140Z,101209.59
2018-11-28T04:58:23.903Z,101212.13
2018-11-28T05:00:51.553Z,101207.44
2018-11-28T05:03:19.236Z,101195.94
2018-11-28T05:05:46.912Z,101205.16
2018-11-28T05:08:14.637Z,101200.02
2018-11-28T05:10:43.234Z,101206.40
2018-11-28T05:13:11.127Z,101210.94
2018-11-28T05:15:38.858Z,101209.62
2018-11-28T05:18:06.602Z,101202.37
2018-11-28T05:20:34.556Z,101207.19
2018-11-28T05:23:03.630Z,101203.84
2018-11-28T05:25:33.023Z,101207.59
2018-11-28T05:28:00.698Z,101211.46
2018-11-28T05:30:30.625Z,101218.58
2018-11-28T05:32:58.817Z,101221.61
2018-11-28T05:35:30.311Z,101219.35
2018-11-28T05:37:58.007Z,101225.69
2018-11-28T05:40:27.142Z,101221.65
2018-11-28T05:42:55.657Z,101213.87
2018-11-28T05:45:23.759Z,101210.00
2018-11-28T05:47:51.906Z,101206.13
2018-11-28T05:50:21.851Z,101210.50
2018-11-28T05:52:50.040Z,101207.25
2018-11-28T05:55:20.779Z,101211.20
2018-11-28T05:57:49.099Z,101215.45
2018-11-28T06:00:25.962Z,101211.28
2018-11-28T06:02:54.054Z,101213.45
2018-11-28T06:05:22.014Z,101206.98
2018-11-28T06:07:50.074Z,101211.95
2018-11-28T06:10:17.923Z,101213.70
2018-11-28T06:12:46.171Z,101218.73
2018-11-28T06:15:14.435Z,101221.95
2018-11-28T06:17:42.255Z,101226.49
2018-11-28T06:20:12.863Z,101236.22
2018-11-28T06:22:40.782Z,101240.19
2018-11-28T06:25:15.856Z,101230.09
2018-11-28T06:27:39.927Z,101227.06
2018-11-28T06:30:11.786Z,101224.38
2018-11-28T06:32:39.871Z,101238.06
2018-11-28T06:35:09.156Z,101242.12
2018-11-28T06:37:37.203Z,101243.02
2018-11-28T06:40:08.762Z,101247.71
2018-11-28T06:42:36.976Z,101253.62
2018-11-28T06:45:08.107Z,101263.19
2018-11-28T06:47:36.194Z,101264.47
2018-11-28T06:50:09.607Z,101255.55
2018-11-28T06:52:37.686Z,101255.70
2018-11-28T06:55:08.442Z,101254.92
2018-11-28T06:57:38.684Z,101265.68
2018-11-28T07:00:14.712Z,101267.05
2018-11-28T07:02:43.012Z,101276.52
2018-11-28T07:05:11.631Z,101274.17
2018-11-28T07:07:39.371Z,101276.05
2018-11-28T07:10:13.795Z,101272.41
2018-11-28T07:12:41.515Z,101274.16
2018-11-28T07:15:13.457Z,101277.42
2018-11-28T07:17:41.924Z,101280.91
2018-11-28T07:20:12.483Z,101278.05
2018-11-28T07:22:40.303Z,101279.42
2018-11-28T07:25:17.588Z,101284.17
2018-11-28T07:27:46.793Z,101286.70
2018-11-28T07:30:19.498Z,101285.53
2018-11-28T07:32:48.635Z,101286.49
2018-11-28T07:35:16.360Z,101285.38
2018-11-28T07:37:44.079Z,101284.41
2018-11-28T07:40:20.903Z,101287.94
2018-11-28T07:43:11.303Z,101283.08
2018-11-28T07:45:41.378Z,101284.27
2018-11-28T07:48:09.295Z,101287.67
2018-11-28T07:50:37.062Z,101294.41
2018-11-28T07:53:04.955Z,101287.84
2018-11-28T07:55:32.772Z,101280.67
2018-11-28T07:58:00.730Z,101289.42
2018-11-28T08:00:28.447Z,101286.91
2018-11-28T08:02:56.271Z,101290.33
2018-11-28T08:05:24.100Z,101291.56
2018-11-28T08:07:51.891Z,101295.48
2018-11-28T08:10:21.036Z,101307.82
2018-11-28T08:12:50.528Z,101309.73
2018-11-28T08:15:18.288Z,101313.19
2018-11-28T08:17:45.990Z,101313.24
2018-11-28T08:20:13.892Z,101318.38
2018-11-28T08:22:41.668Z,101320.08
2018-11-28T08:25:13.862Z,101313.08
2018-11-28T08:27:42.931Z,101314.64
2018-11-28T08:30:14.991Z,101313.80
2018-11-28T08:32:42.712Z,101312.35
2018-11-28T08:35:11.425Z,101309.21
2018-11-28T08:37:39.120Z,101324.42
2018-11-28T08:40:10.259Z,101325.09
2018-11-28T08:42:38.071Z,101333.25
2018-11-28T08:45:08.920Z,101324.47
2018-11-28T08:47:36.686Z,101324.16
2018-11-28T08:50:10.071Z,101327.73
2018-11-28T08:52:37.796Z,101315.08
2018-11-28T08:55:07.386Z,101317.45
2018-11-28T08:57:35.199Z,101313.09
2018-11-28T09:00:13.568Z,101321.55
2018-11-28T09:02:41.355Z,101317.98
2018-11-28T09:05:10.531Z,101311.08
2018-11-28T09:07:38.375Z,101315.01
2018-11-28T09:10:13.587Z,101318.04
2018-11-28T09:12:41.309Z,101316.70
2018-11-28T09:15:14.792Z,101312.98
2018-11-28T09:17:42.508Z,101317.73
2018-11-28T09:20:12.611Z,101319.94
2018-11-28T09:22:40.355Z,101317.57
2018-11-28T09:25:11.229Z,101315.05
2018-11-28T09:27:38.911Z,101317.56
2018-11-28T09:30:10.637Z,101314.52
2018-11-28T09:32:38.353Z,101316.55
2018-11-28T09:35:08.104Z,101326.66
2018-11-28T09:37:35.834Z,101323.94
2018-11-28T09:40:08.821Z,101324.30
2018-11-28T09:42:37.091Z,101327.31
2018-11-28T09:45:05.435Z,101333.36
2018-11-28T09:47:33.172Z,101330.62
2018-11-28T09:50:00.855Z,101325.72
2018-11-28T09:52:28.664Z,101330.88
2018-11-28T09:54:58.242Z,101323.45
2018-11-28T09:57:25.944Z,101319.72
2018-11-28T09:59:53.643Z,101318.46
2018-11-28T10:02:21.348Z,101319.53
2018-11-28T10:04:49.099Z,101319.91
2018-11-28T10:07:16.864Z,101313.41
2018-11-28T10:09:44.593Z,101314.03
2018-11-28T10:12:12.355Z,101312.94
2018-11-28T10:14:40.156Z,101318.66
2018-11-28T10:17:07.867Z,101313.52
2018-11-28T10:19:35.639Z,101312.27
2018-11-28T10:22:03.552Z,101306.31
2018-11-28T10:24:31.211Z,101313.25
2018-11-28T10:26:59.017Z,101297.82
2018-11-28T10:29:26.880Z,101295.91
2018-11-28T10:31:54.895Z,101296.64
2018-11-28T10:34:22.665Z,101299.05
2018-11-28T10:36:50.426Z,101298.77
2018-11-28T10:39:18.291Z,101296.05
2018-11-28T10:41:45.979Z,101289.51
2018-11-28T10:44:13.727Z,101287.39
2018-11-28T10:46:41.515Z,101294.37
2018-11-28T10:49:09.199Z,101298.53
2018-11-28T10:51:36.991Z,101302.22
2018-11-28T10:54:05.364Z,101293.11
2018-11-28T10:56:33.067Z,101293.98
2018-11-28T10:59:00.891Z,101288.73
2018-11-28T11:01:28.651Z,101286.41
2018-11-28T11:04:01.951Z,101288.73
2018-11-28T11:06:35.572Z,101281.27
2018-11-28T11:09:11.315Z,101268.53
2018-11-28T11:11:44.948Z,101268.22
2018-11-28T11:14:18.286Z,101270.22
2018-11-28T11:16:46.087Z,101263.90
2018-11-28T11:19:13.884Z,101270.02
2018-11-28T11:21:41.698Z,101268.86
2018-11-28T11:24:09.514Z,101268.02
2018-11-28T11:26:37.295Z,101259.67
2018-11-28T11:29:05.431Z,101263.63
2018-11-28T11:31:33.833Z,101254.03
2018-11-28T11:34:00.879Z,101253.16
2018-11-28T11:36:28.666Z,101256.39
2018-11-28T11:38:56.364Z,101243.13
2018-11-28T11:41:24.063Z,101248.17
2018-11-28T11:43:51.779Z,101246.77
2018-11-28T11:46:19.623Z,101248.97
2018-11-28T11:48:47.303Z,101242.89
2018-11-28T11:51:15.140Z,101254.80
2018-11-28T11:53:42.836Z,101248.08
2018-11-28T11:56:10.607Z,101248.48
2018-11-28T11:58:38.351Z,101242.00
2018-11-28T12:01:06.352Z,101241.03
2018-11-28T12:03:34.111Z,101241.70
2018-11-28T12:06:01.840Z,101233.80
2018-11-28T12:08:29.763Z,101239.31
2018-11-28T12:10:57.458Z,101238.45
2018-11-28T12:13:25.345Z,101237.36
2018-11-28T12:15:53.199Z,101233.29
2018-11-28T12:18:20.887Z,101232.50
2018-11-28T12:20:52.057Z,101236.26
2018-11-28T12:23:19.887Z,101221.49
2018-11-28T12:25:49.782Z,101221.95
2018-11-28T12:28:17.532Z,101220.47
2018-11-28T12:30:45.309Z,101222.91
2018-11-28T12:33:13.072Z,101223.11
2018-11-28T12:35:40.778Z,101215.55
2018-11-28T12:38:08.500Z,101212.70
2018-11-28T12:40:36.555Z,101215.61
2018-11-28T12:43:07.371Z,101217.48
2018-11-28T12:45:36.373Z,101220.14
2018-11-28T12:48:04.143Z,101220.02
2018-11-28T12:50:31.964Z,101213.74
2018-11-28T12:53:01.110Z,101219.18
2018-11-28T12:55:33.975Z,101220.00
2018-11-28T12:58:01.723Z,101220.25
2018-11-28T13:00:32.132Z,101215.42
2018-11-28T13:02:59.915Z,101213.34
2018-11-28T13:05:27.704Z,101215.47
2018-11-28T13:07:55.451Z,101212.39
2018-11-28T13:10:26.865Z,101212.55
2018-11-28T13:12:54.987Z,101207.57
2018-11-28T13:15:24.611Z,101213.08
2018-11-28T13:17:52.369Z,101211.98
2018-11-28T13:20:21.272Z,101207.41
2018-11-28T13:22:50.481Z,101207.06
2018-11-28T13:25:22.008Z,101206.18
2018-11-28T13:27:49.833Z,101200.16
2018-11-28T13:30:19.043Z,101201.95
2018-11-28T13:32:47.763Z,101206.23
2018-11-28T13:35:18.958Z,101204.41
2018-11-28T13:37:49.988Z,101201.64
2018-11-28T13:40:18.782Z,101199.77
2018-11-28T13:42:46.520Z,101203.27
2018-11-28T13:45:31.913Z,101199.94
2018-11-28T13:47:59.762Z,101191.80
2018-11-28T13:50:27.551Z,101196.31
2018-11-28T13:52:56.483Z,101182.73
2018-11-28T13:55:44.017Z,101188.16
2018-11-28T13:57:56.522Z,101188.63
2018-11-28T14:00:24.863Z,101186.28
2018-11-28T14:02:52.603Z,101182.79
2018-11-28T14:05:20.351Z,101170.95
2018-11-28T14:07:48.162Z,101170.32
2018-11-28T14:10:16.083Z,101176.99
2018-11-28T14:12:44.652Z,101180.36
2018-11-28T14:15:17.042Z,101189.02
2018-11-28T14:17:49.023Z,101188.63
2018-11-28T14:20:16.874Z,101187.58
2018-11-28T14:22:44.691Z,101193.89
2018-11-28T14:25:13.273Z,101191.34
2018-11-28T14:27:41.619Z,101192.11
2018-11-28T14:30:13.602Z,101187.02
2018-11-28T14:32:41.352Z,101187.80
2018-11-28T14:35:10.387Z,101178.72
2018-11-28T14:37:38.115Z,101181.52
2018-11-28T14:40:09.895Z,101184.92
2018-11-28T14:42:37.571Z,101183.33
2018-11-28T14:45:10.479Z,101187.20
2018-11-28T14:47:38.319Z,101190.81
2018-11-28T14:50:11.072Z,101196.71
2018-11-28T14:52:38.768Z,101194.52
2018-11-28T14:55:12.331Z,101183.90
2018-11-28T14:57:40.383Z,101189.08
2018-11-28T15:00:17.778Z,101185.25
2018-11-28T15:02:50.499Z,101180.59
2018-11-28T15:05:58.802Z,101183.95
2018-11-28T15:08:26.971Z,101184.27
2018-11-28T15:11:07.884Z,101196.77
2018-11-28T15:13:35.687Z,101192.34
2018-11-28T15:16:03.519Z,101192.62
2018-11-28T15:18:31.279Z,101195.05
2018-11-28T15:20:58.999Z,101193.97
2018-11-28T15:23:26.681Z,101198.29
2018-11-28T15:25:54.415Z,101191.42
2018-11-28T15:28:22.159Z,101194.61
2018-11-28T15:30:49.935Z,101192.34
2018-11-28T15:33:17.736Z,101179.61
2018-11-28T15:35:45.419Z,101175.90
2018-11-28T15:38:13.079Z,101185.40
2018-11-28T15:40:41.201Z,101181.44
2018-11-28T15:43:08.919Z,101173.53
2018-11-28T15:45:40.940Z,101164.75
2018-11-28T15:48:08.667Z,101167.51
2018-11-28T15:50:36.519Z,101169.34
2018-11-28T15:53:04.555Z,101176.00
2018-11-28T15:55:32.895Z,101177.62
2018-11-28T15:58:03.772Z,101172.20
2018-11-28T16:00:31.813Z,101165.30
2018-11-28T16:02:59.727Z,101156.64
2018-11-28T16:05:27.575Z,101158.74
2018-11-28T16:07:55.461Z,101160.38
2018-11-28T16:10:29.011Z,101164.81
2018-11-28T16:12:57.249Z,101164.45
2018-11-28T16:15:28.559Z,101169.88
2018-11-28T16:17:56.568Z,101166.37
2018-11-28T16:20:24.741Z,101174.20
2018-11-28T16:22:52.668Z,101169.81
2018-11-28T16:25:20.661Z,101163.66
2018-11-28T16:27:48.520Z,101160.23
2018-11-28T16:30:16.316Z,101162.83
2018-11-28T16:32:45.344Z,101169.17
2018-11-28T16:35:15.807Z,101170.33
2018-11-28T16:37:44.508Z,101173.44
2018-11-28T16:40:14.559Z,101171.83
2018-11-28T16:42:46.317Z,101169.20
2018-11-28T16:45:19.283Z,101163.70
2018-11-28T16:47:47.768Z,101157.28
2018-11-28T16:50:16.941Z,101158.31
2018-11-28T16:52:45.106Z,101152.41
2018-11-28T16:55:15.433Z,101164.13
2018-11-28T16:57:46.887Z,101157.19
2018-11-28T17:00:18.439Z,101148.86
2018-11-28T17:02:46.197Z,101154.12
2018-11-28T17:05:15.610Z,101154.12
2018-11-28T17:07:43.570Z,101150.89
2018-11-28T17:10:15.762Z,101158.84
2018-11-28T17:12:44.832Z,101163.27
2018-11-28T17:15:15.035Z,101167.76
2018-11-28T17:17:43.111Z,101172.67
2018-11-28T17:20:16.425Z,101168.59
2018-11-28T17:22:45.009Z,101166.98
2018-11-28T17:25:24.069Z,101171.22
2018-11-28T17:27:51.895Z,101171.00
2018-11-28T17:30:21.808Z,101158.34
2018-11-28T17:32:49.507Z,101162.86
2018-11-28T17:35:17.311Z,101165.99
2018-11-28T17:37:45.380Z,101169.95
2018-11-28T17:40:18.068Z,101175.03
2018-11-28T17:42:47.769Z,101174.93
2018-11-28T17:45:17.007Z,101182.25
2018-11-28T17:47:44.807Z,101182.61
2018-11-28T17:50:16.211Z,101196.00
2018-11-28T17:53:05.492Z,101202.39
2018-11-28T17:55:39.355Z,101204.29
2018-11-28T17:58:07.267Z,101203.97
2018-11-28T18:00:35.529Z,101197.52
2018-11-28T18:03:03.298Z,101187.48
2018-11-28T18:05:31.063Z,101190.33
2018-11-28T18:07:58.722Z,101179.34
2018-11-28T18:10:26.506Z,101177.25
2018-11-28T18:13:08.995Z,101175.41
2018-11-28T18:15:37.220Z,101179.64
2018-11-28T18:18:07.567Z,101192.81
2018-11-28T18:20:35.597Z,101188.30
2018-11-28T18:23:04.583Z,101191.33
2018-11-28T18:25:33.299Z,101191.88
2018-11-28T18:28:01.372Z,101196.30
2018-11-28T18:30:29.051Z,101198.31
2018-11-28T18:32:56.784Z,101196.76
2018-11-28T18:35:24.555Z,101191.02
2018-11-28T18:37:53.030Z,101182.65
2018-11-28T18:40:20.766Z,101182.06
2018-11-28T18:42:48.463Z,101187.46
2018-11-28T18:45:23.561Z,101192.56
2018-11-28T18:47:51.726Z,101190.37
2018-11-28T18:50:19.487Z,101184.03
2018-11-28T18:52:47.257Z,101192.02
2018-11-28T18:55:18.775Z,101189.63
2018-11-28T18:57:48.515Z,101187.23
2018-11-28T19:00:20.177Z,101190.27
2018-11-28T19:02:47.894Z,101193.98
2018-11-28T19:05:15.671Z,101191.20
2018-11-28T19:07:44.787Z,101190.67
2018-11-28T19:10:15.436Z,101189.71
2018-11-28T19:12:43.255Z,101188.91
2018-11-28T19:15:12.766Z,101190.97
2018-11-28T19:17:40.722Z,101189.33
2018-11-28T19:20:11.968Z,101184.62
2018-11-28T19:22:39.700Z,101194.23
2018-11-28T19:25:10.872Z,101190.40
2018-11-28T19:27:38.743Z,101182.75
2018-11-28T19:30:13.631Z,101180.39
2018-11-28T19:32:41.410Z,101180.77
2018-11-28T19:35:10.300Z,101175.06
2018-11-28T19:37:39.193Z,101183.06
2018-11-28T19:40:15.299Z,101191.45
2018-11-28T19:42:43.165Z,101192.20
2018-11-28T19:45:10.899Z,101182.58
2018-11-28T19:47:38.789Z,101185.38
2018-11-28T19:50:10.527Z,101188.11
2018-11-28T19:52:38.275Z,101189.53
2018-11-28T19:55:07.339Z,101186.13
2018-11-28T19:57:35.004Z,101187.57
2018-11-28T20:00:04.190Z,101194.02
2018-11-28T20:02:31.947Z,101191.20
2018-11-28T20:04:59.759Z,101197.97
2018-11-28T20:07:27.924Z,101196.43
2018-11-28T20:09:57.674Z,101205.97
2018-11-28T20:12:26.627Z,101201.52
2018-11-28T20:14:54.380Z,101205.97
2018-11-28T20:17:22.048Z,101208.70
2018-11-28T20:19:49.984Z,101209.08
2018-11-28T20:22:17.704Z,101210.13
2018-11-28T20:24:45.475Z,101206.41
2018-11-28T20:27:13.236Z,101212.06
2018-11-28T20:29:41.428Z,101213.96
2018-11-28T20:32:09.220Z,101214.15
2018-11-28T20:34:36.927Z,101212.66
2018-11-28T20:37:04.891Z,101206.48
2018-11-28T20:39:32.679Z,101206.23
2018-11-28T20:42:00.375Z,101205.08
2018-11-28T20:44:28.599Z,101207.95
2018-11-28T20:46:56.703Z,101213.88
2018-11-28T20:49:24.579Z,101210.88
2018-11-28T20:51:52.235Z,101206.81
2018-11-28T20:54:19.926Z,101208.03
2018-11-28T20:56:48.067Z,101194.17
2018-11-28T20:59:15.953Z,101196.36
2018-11-28T21:01:43.768Z,101192.51
2018-11-28T21:04:11.475Z,101194.22
2018-11-28T21:06:39.123Z,101199.45
2018-11-28T21:09:09.611Z,101203.90
2018-11-28T21:11:37.555Z,101207.05
2018-11-28T21:14:05.308Z,101217.56
2018-11-28T21:16:33.029Z,101217.56
2018-11-28T21:19:01.019Z,101220.80
2018-11-28T21:21:28.730Z,101224.53
2018-11-28T21:23:56.451Z,101223.34
2018-11-28T21:26:24.930Z,101212.20
2018-11-28T21:28:52.947Z,101207.36
2018-11-28T21:31:20.647Z,101205.16
2018-11-28T21:33:48.355Z,101201.39
2018-11-28T21:36:16.027Z,101201.75
2018-11-28T21:38:44.507Z,101200.55
2018-11-28T21:41:12.157Z,101202.46
2018-11-28T21:43:39.816Z,101204.14
2018-11-28T21:46:08.183Z,101198.26
2018-11-28T21:48:35.945Z,101206.53
2018-11-28T21:51:03.605Z,101207.55
2018-11-28T21:53:31.316Z,101206.56
2018-11-28T21:55:59.487Z,101203.02
2018-11-28T21:58:27.131Z,101188.29
2018-11-28T22:00:54.813Z,101187.30
2018-11-28T22:03:22.483Z,101175.64
2018-11-28T22:05:50.192Z,101181.23
2018-11-28T22:08:17.843Z,101179.70
2018-11-28T22:10:45.539Z,101178.21
2018-11-28T22:13:13.239Z,101168.05
2018-11-28T22:15:40.939Z,101160.82
2018-11-28T22:18:08.597Z,101163.71
2018-11-28T22:20:36.227Z,101163.84
2018-11-28T22:23:03.931Z,101154.09
2018-11-28T22:25:31.594Z,101164.91
2018-11-28T22:27:59.296Z,101168.79
2018-11-28T22:30:28.253Z,101156.66
2018-11-28T22:32:56.628Z,101169.16
2018-11-28T22:35:24.372Z,101162.21
2018-11-28T22:37:52.147Z,101180.62
2018-11-28T22:40:30.626Z,101186.41
2018-11-28T22:42:58.322Z,101194.48
2018-11-28T22:45:30.847Z,101193.50
2018-11-28T22:47:58.615Z,101202.12
2018-11-28T22:50:26.296Z,101210.02
2018-11-28T22:52:53.989Z,101210.89
2018-11-28T22:55:21.649Z,101212.42
2018-11-28T22:57:49.550Z,101221.41
2018-11-28T23:00:25.690Z,101217.20
2018-11-28T23:03:12.193Z,101204.34
2018-11-28T23:05:48.091Z,101198.24
2018-11-28T23:08:17.163Z,101200.47
2018-11-28T23:10:45.087Z,101205.69
2018-11-28T23:13:14.315Z,101198.39
2018-11-28T23:15:42.087Z,101210.41
2018-11-28T23:18:10.875Z,101199.59
2018-11-28T23:20:38.607Z,101190.83
2018-11-28T23:23:07.532Z,101180.01
2018-11-28T23:25:35.755Z,101174.12
2018-11-28T23:28:03.521Z,101157.36
2018-11-28T23:30:34.145Z,101152.68
2018-11-28T23:33:02.963Z,101154.84
2018-11-28T23:35:30.966Z,101154.18
2018-11-28T23:37:58.669Z,101162.80
2018-11-28T23:40:26.413Z,101163.83
2018-11-28T23:42:55.104Z,101172.77
2018-11-28T23:45:23.715Z,101173.10
2018-11-28T23:47:51.443Z,101182.05
2018-11-28T23:50:26.848Z,101180.05
2018-11-28T23:52:55.340Z,101173.10
2018-11-28T23:55:25.438Z,101171.75
2018-11-28T23:57:53.394Z,101165.50
